createdAt,value
2023-05-10T00:00:55.771Z,34.25
2023-05-10T00:03:22.370Z,36.10
2023-05-10T00:05:49.027Z,31.92
2023-05-10T00:08:15.623Z,33.70
2023-05-10T00:10:42.164Z,34.55
2023-05-10T00:13:11.648Z,32.03
2023-05-10T00:15:38.187Z,35.00
2023-05-10T00:18:04.794Z,34.38
2023-05-10T00:20:31.396Z,34.10
2023-05-10T00:22:57.900Z,32.95
2023-05-10T00:25:24.548Z,33.90
2023-05-10T00:27:51.107Z,35.28
2023-05-10T00:30:19.859Z,34.40
2023-05-10T00:32:46.376Z,35.63
2023-05-10T00:35:12.790Z,34.20
2023-05-10T00:37:39.208Z,32.70
2023-05-10T00:40:07.326Z,37.33
2023-05-10T00:42:33.809Z,31.17
2023-05-10T00:45:03.311Z,37.25
2023-05-10T00:47:33.223Z,34.78
2023-05-10T00:50:01.580Z,36.50
2023-05-10T00:52:29.986Z,34.63
2023-05-10T00:54:57.731Z,37.60
2023-05-10T00:57:25.268Z,33.25
2023-05-10T00:59:52.220Z,32.88
2023-05-10T01:02:18.829Z,31.63
2023-05-10T01:04:45.205Z,36.53
2023-05-10T01:07:12.017Z,37.42
2023-05-10T01:09:38.597Z,37.28
2023-05-10T01:12:10.084Z,38.13
2023-05-10T01:14:37.389Z,35.08
2023-05-10T01:17:06.014Z,35.88
2023-05-10T01:19:35.922Z,37.28
2023-05-10T01:22:23.673Z,36.75
2023-05-10T01:25:27.949Z,33.80
2023-05-10T01:28:16.330Z,38.42
2023-05-10T01:31:09.527Z,34.65
2023-05-10T01:33:55.816Z,31.83
2023-05-10T01:36:40.325Z,33.05
2023-05-10T01:39:15.799Z,30.85
2023-05-10T01:42:01.372Z,32.28
2023-05-10T01:44:41.155Z,34.47
2023-05-10T01:47:18.308Z,34.05
2023-05-10T01:49:50.428Z,32.40
2023-05-10T01:52:20.333Z,38.88
2023-05-10T01:54:54.852Z,37.50
2023-05-10T01:57:23.105Z,38.17
2023-05-10T01:59:51.577Z,38.08
2023-05-10T02:02:21.152Z,38.22
2023-05-10T02:04:50.468Z,39.17
2023-05-10T02:07:17.565Z,39.17
2023-05-10T02:09:48.863Z,42.20
2023-05-10T02:12:16.510Z,37.75
2023-05-10T02:14:44.348Z,41.70
2023-05-10T02:17:12.425Z,38.10
2023-05-10T02:19:42.577Z,36.90
2023-05-10T02:22:09.899Z,39.95
2023-05-10T02:24:38.328Z,36.00
2023-05-10T02:27:05.929Z,38.17
2023-05-10T02:29:34.431Z,36.80
2023-05-10T02:32:02.501Z,40.40
2023-05-10T02:34:29.879Z,38.78
2023-05-10T02:36:57.296Z,33.95
2023-05-10T02:39:28.462Z,41.97
2023-05-10T02:41:56.465Z,38.70
2023-05-10T02:44:24.115Z,36.50
2023-05-10T02:46:50.878Z,41.15
2023-05-10T02:49:17.472Z,33.47
2023-05-10T02:51:53.855Z,37.95
2023-05-10T02:54:25.242Z,36.72
2023-05-10T02:56:57.220Z,36.58
2023-05-10T03:01:50.119Z,40.15
2023-05-10T03:04:16.802Z,39.38
2023-05-10T03:06:43.393Z,43.72
2023-05-10T03:09:14.311Z,43.08
2023-05-10T03:11:48.273Z,39.22
2023-05-10T03:14:23.398Z,47.25
2023-05-10T03:17:19.353Z,42.33
2023-05-10T03:20:05.347Z,53.13
2023-05-10T03:22:37.890Z,52.65
2023-05-10T03:25:07.831Z,45.42
2023-05-10T03:27:38.815Z,52.83
2023-05-10T03:30:12.693Z,58.07
2023-05-10T03:32:39.778Z,58.58
2023-05-10T03:35:16.740Z,52.92
2023-05-10T03:37:43.241Z,56.55
2023-05-10T03:40:13.020Z,52.72
2023-05-10T03:42:39.529Z,45.38
2023-05-10T03:45:06.834Z,42.92
2023-05-10T03:47:33.413Z,40.20
2023-05-10T03:50:03.398Z,43.53
2023-05-10T03:52:29.962Z,46.05
2023-05-10T03:54:56.399Z,42.13
2023-05-10T03:57:25.685Z,42.25
2023-05-10T03:59:52.212Z,44.10
2023-05-10T04:02:18.721Z,41.90
2023-05-10T04:04:45.180Z,39.85
2023-05-10T04:07:11.622Z,36.90
2023-05-10T04:09:38.085Z,40.05
2023-05-10T04:12:04.657Z,40.38
2023-05-10T04:14:31.070Z,36.45
2023-05-10T04:17:00.419Z,44.05
2023-05-10T04:19:31.250Z,52.50
2023-05-10T04:21:57.728Z,50.95
2023-05-10T04:24:24.487Z,52.78
2023-05-10T04:26:51.586Z,56.03
2023-05-10T04:29:19.465Z,54.03
2023-05-10T04:31:46.063Z,48.75
2023-05-10T04:34:14.937Z,48.00
2023-05-10T04:36:41.476Z,49.50
2023-05-10T04:39:07.997Z,45.10
2023-05-10T04:41:34.446Z,47.05
2023-05-10T04:44:00.870Z,47.90
2023-05-10T04:46:27.530Z,44.83
2023-05-10T04:49:01.141Z,48.80
2023-05-10T04:51:27.624Z,46.80
2023-05-10T04:54:05.322Z,50.97
2023-05-10T04:56:32.774Z,54.60
2023-05-10T04:58:59.217Z,47.13
2023-05-10T05:01:25.693Z,41.83
2023-05-10T05:03:53.861Z,44.60
2023-05-10T05:06:21.876Z,41.78
2023-05-10T05:08:50.239Z,39.85
2023-05-10T05:11:16.993Z,34.72
2023-05-10T05:13:43.680Z,32.85
2023-05-10T05:16:10.098Z,37.03
2023-05-10T05:18:36.529Z,38.13
2023-05-10T05:21:03.171Z,34.05
2023-05-10T05:23:29.692Z,32.65
2023-05-10T05:25:56.229Z,32.85
2023-05-10T05:28:22.798Z,30.15
2023-05-10T05:30:49.267Z,30.05
2023-05-10T05:33:16.512Z,25.00
2023-05-10T05:35:45.652Z,26.50
2023-05-10T05:38:12.319Z,25.58
2023-05-10T05:40:38.768Z,20.33
2023-05-10T05:43:05.213Z,22.77
2023-05-10T05:45:31.821Z,23.45
2023-05-10T05:47:58.384Z,21.90
2023-05-10T05:50:24.955Z,23.83
2023-05-10T05:52:52.045Z,22.55
2023-05-10T05:55:20.968Z,23.50
2023-05-10T05:57:47.399Z,21.80
2023-05-10T06:00:14.337Z,19.40
2023-05-10T06:02:40.862Z,22.42
2023-05-10T06:05:07.856Z,17.55
2023-05-10T06:07:34.365Z,16.75
2023-05-10T06:10:04.171Z,19.73
2023-05-10T06:12:30.640Z,18.23
2023-05-10T06:14:57.082Z,22.33
2023-05-10T06:17:23.536Z,19.95
2023-05-10T06:19:50.103Z,26.38
2023-05-10T06:22:16.671Z,26.10
2023-05-10T06:24:43.184Z,26.58
2023-05-10T06:27:09.732Z,25.58
2023-05-10T06:29:36.139Z,35.30
2023-05-10T06:32:02.557Z,30.48
2023-05-10T06:34:28.954Z,24.95
2023-05-10T06:36:55.347Z,23.48
2023-05-10T06:39:22.012Z,26.63
2023-05-10T06:41:48.413Z,23.20
2023-05-10T06:44:14.973Z,26.23
2023-05-10T06:46:42.569Z,30.70
2023-05-10T06:49:09.453Z,26.90
2023-05-10T06:51:35.895Z,30.73
2023-05-10T06:54:02.876Z,23.77
2023-05-10T06:56:29.331Z,28.00
2023-05-10T06:58:55.773Z,33.08
2023-05-10T07:01:22.211Z,21.08
2023-05-10T07:03:48.786Z,23.45
2023-05-10T07:06:29.305Z,20.63
2023-05-10T07:08:59.788Z,16.50
2023-05-10T07:11:26.258Z,18.13
2023-05-10T07:13:52.720Z,18.13
2023-05-10T07:16:20.803Z,19.02
2023-05-10T07:18:51.375Z,18.02
2023-05-10T07:21:17.991Z,20.83
2023-05-10T07:23:45.242Z,23.08
2023-05-10T07:26:12.528Z,19.15
2023-05-10T07:28:39.143Z,19.67
2023-05-10T07:31:05.767Z,20.90
2023-05-10T07:33:32.232Z,18.83
2023-05-10T07:35:58.672Z,18.95
2023-05-10T07:38:25.344Z,16.15
2023-05-10T07:40:51.865Z,17.13
2023-05-10T07:43:18.296Z,18.02
2023-05-10T07:45:45.961Z,17.10
2023-05-10T07:48:12.481Z,19.08
2023-05-10T07:50:38.972Z,22.80
2023-05-10T07:53:05.389Z,15.32
2023-05-10T07:55:31.806Z,20.08
2023-05-10T07:57:58.226Z,17.15
2023-05-10T08:00:24.607Z,16.63
2023-05-10T08:02:51.315Z,14.40
2023-05-10T08:05:18.122Z,18.60
2023-05-10T08:07:44.708Z,16.55
2023-05-10T08:10:12.328Z,15.82
2023-05-10T08:12:39.385Z,19.48
2023-05-10T08:15:06.621Z,17.90
2023-05-10T08:17:33.530Z,17.20
2023-05-10T08:20:00.148Z,16.48
2023-05-10T08:22:27.064Z,14.45
2023-05-10T08:24:53.657Z,12.93
2023-05-10T08:27:20.127Z,13.95
2023-05-10T08:29:50.521Z,13.05
2023-05-10T08:32:17.612Z,13.00
2023-05-10T08:34:44.139Z,11.55
2023-05-10T08:37:13.980Z,14.23
2023-05-10T08:39:40.827Z,12.63
2023-05-10T08:42:08.061Z,14.35
2023-05-10T08:44:36.653Z,13.52
2023-05-10T08:47:08.014Z,11.52
2023-05-10T08:49:34.706Z,11.25
2023-05-10T08:52:05.025Z,10.40
2023-05-10T08:54:34.147Z,11.35
2023-05-10T08:57:01.362Z,10.10
2023-05-10T08:59:28.719Z,13.32
2023-05-10T09:01:58.582Z,12.18
2023-05-10T09:04:25.318Z,9.57
2023-05-10T09:06:51.923Z,12.25
2023-05-10T09:09:19.181Z,12.13
2023-05-10T09:11:46.047Z,12.77
2023-05-10T09:14:13.543Z,8.68
2023-05-10T09:16:42.428Z,10.57
2023-05-10T09:19:09.666Z,10.68
2023-05-10T09:21:42.210Z,16.75
2023-05-10T09:24:12.962Z,9.88
2023-05-10T09:26:49.668Z,14.52
2023-05-10T09:29:19.292Z,11.55
2023-05-10T09:31:48.587Z,13.50
2023-05-10T09:34:29.593Z,11.75
2023-05-10T09:37:05.266Z,12.05
2023-05-10T09:39:36.552Z,11.00
2023-05-10T09:42:09.544Z,10.02
2023-05-10T09:44:36.762Z,8.05
2023-05-10T09:47:03.642Z,8.52
2023-05-10T09:49:30.836Z,9.82
2023-05-10T09:52:02.300Z,10.18
2023-05-10T09:54:29.051Z,7.93
2023-05-10T09:56:55.541Z,10.80
2023-05-10T09:59:22.107Z,9.02
2023-05-10T10:01:52.522Z,8.15
2023-05-10T10:04:20.810Z,6.78
2023-05-10T10:06:47.283Z,7.03
2023-05-10T10:09:15.016Z,10.35
2023-05-10T10:11:42.394Z,7.60
2023-05-10T10:14:08.985Z,8.73
2023-05-10T10:16:35.984Z,7.47
2023-05-10T10:19:02.809Z,7.90
2023-05-10T10:21:29.506Z,7.70
2023-05-10T10:23:58.692Z,5.40
2023-05-10T10:26:26.031Z,6.07
2023-05-10T10:28:58.281Z,5.55
2023-05-10T10:32:20.605Z,7.63
2023-05-10T10:34:47.987Z,5.28
2023-05-10T10:37:17.318Z,7.13
2023-05-10T10:39:43.718Z,5.93
2023-05-10T10:42:10.327Z,5.82
2023-05-10T10:44:39.022Z,7.28
2023-05-10T10:47:19.637Z,5.80
2023-05-10T10:50:03.442Z,6.25
2023-05-10T10:52:41.196Z,4.97
2023-05-10T10:55:19.402Z,6.25
2023-05-10T10:57:52.522Z,6.07
2023-05-10T11:00:23.022Z,6.55
2023-05-10T11:02:51.117Z,5.65
2023-05-10T11:05:50.506Z,5.10
2023-05-10T11:08:28.238Z,6.18
2023-05-10T11:11:09.960Z,6.10
2023-05-10T11:13:41.018Z,5.22
2023-05-10T11:16:28.020Z,5.70
2023-05-10T11:18:58.511Z,5.90
2023-05-10T11:21:25.039Z,5.10
2023-05-10T11:23:58.689Z,8.68
2023-05-10T11:26:33.623Z,7.18
2023-05-10T11:29:01.724Z,4.50
2023-05-10T11:31:29.574Z,7.80
2023-05-10T11:33:58.035Z,7.38
2023-05-10T11:36:30.489Z,10.95
2023-05-10T11:38:57.990Z,8.00
2023-05-10T11:41:25.814Z,5.25
2023-05-10T11:43:54.283Z,5.45
2023-05-10T11:46:23.056Z,5.35
2023-05-10T11:48:55.026Z,6.00
2023-05-10T11:51:22.991Z,5.18
2023-05-10T11:53:53.817Z,5.13
2023-05-10T11:56:21.662Z,5.57
2023-05-10T11:58:56.427Z,3.95
2023-05-10T12:01:24.853Z,4.05
2023-05-10T12:03:52.531Z,4.43
2023-05-10T12:06:22.367Z,5.32
2023-05-10T12:08:53.432Z,6.20
2023-05-10T12:11:22.586Z,4.40
2023-05-10T12:13:49.668Z,10.02
2023-05-10T12:16:27.071Z,5.85
2023-05-10T12:18:57.958Z,5.25
2023-05-10T12:21:25.377Z,5.77
2023-05-10T12:23:54.358Z,6.47
2023-05-10T12:26:25.782Z,4.63
2023-05-10T12:28:52.214Z,6.50
2023-05-10T12:31:22.176Z,5.10
2023-05-10T12:33:50.227Z,5.75
2023-05-10T12:36:17.816Z,8.70
2023-05-10T12:38:50.874Z,9.88
2023-05-10T12:41:18.882Z,4.50
2023-05-10T12:43:49.203Z,7.28
2023-05-10T12:46:17.456Z,6.88
2023-05-10T12:48:45.427Z,5.10
2023-05-10T12:51:14.059Z,5.82
2023-05-10T12:53:43.676Z,4.97
2023-05-10T12:56:11.744Z,5.88
2023-05-10T12:58:39.308Z,6.40
2023-05-10T13:01:06.289Z,6.15
2023-05-10T13:03:33.243Z,3.75
2023-05-10T13:05:59.618Z,6.07
2023-05-10T13:08:26.217Z,8.68
2023-05-10T13:10:53.090Z,9.20
2023-05-10T13:13:19.512Z,10.70
2023-05-10T13:15:46.036Z,13.63
2023-05-10T13:18:12.545Z,12.98
2023-05-10T13:20:39.181Z,14.55
2023-05-10T13:23:05.667Z,14.68
2023-05-10T13:25:35.944Z,13.82
2023-05-10T13:28:02.976Z,15.30
2023-05-10T13:30:30.225Z,13.48
2023-05-10T13:32:56.727Z,13.13
2023-05-10T13:35:23.275Z,14.98
2023-05-10T13:37:50.256Z,17.30
2023-05-10T13:40:17.731Z,15.05
2023-05-10T13:42:44.351Z,12.93
2023-05-10T13:45:13.257Z,16.80
2023-05-10T13:47:39.797Z,12.32
2023-05-10T13:50:07.106Z,16.33
2023-05-10T13:52:33.599Z,10.90
2023-05-10T13:55:00.087Z,11.80
2023-05-10T13:57:26.633Z,13.80
2023-05-10T13:59:53.829Z,12.95
2023-05-10T14:02:21.140Z,9.70
2023-05-10T14:04:47.800Z,12.93
2023-05-10T14:07:14.220Z,10.52
2023-05-10T14:09:40.761Z,11.65
2023-05-10T14:12:07.140Z,10.13
2023-05-10T14:14:33.636Z,8.85
2023-05-10T14:17:00.472Z,8.93
2023-05-10T14:19:28.023Z,9.77
2023-05-10T14:21:54.490Z,8.90
2023-05-10T14:24:21.149Z,11.38
2023-05-10T14:26:47.488Z,9.13
2023-05-10T14:29:15.544Z,13.38
2023-05-10T14:31:42.062Z,7.43
2023-05-10T14:34:08.580Z,9.75
2023-05-10T14:36:35.006Z,11.80
2023-05-10T14:39:01.419Z,13.93
2023-05-10T14:41:27.889Z,13.30
2023-05-10T14:43:54.256Z,9.65
2023-05-10T14:46:20.850Z,10.95
2023-05-10T14:48:47.346Z,9.05
2023-05-10T14:51:13.871Z,7.65
2023-05-10T14:53:40.480Z,10.07
2023-05-10T14:56:07.328Z,8.32
2023-05-10T14:58:34.393Z,10.77
2023-05-10T15:01:02.514Z,11.07
2023-05-10T15:03:29.889Z,9.65
2023-05-10T15:05:58.525Z,11.65
2023-05-10T15:08:25.637Z,8.25
2023-05-10T15:10:52.791Z,11.50
2023-05-10T15:13:19.207Z,9.40
2023-05-10T15:15:45.703Z,10.15
2023-05-10T15:18:12.581Z,10.50
2023-05-10T15:20:39.179Z,11.18
2023-05-10T15:23:05.688Z,10.75
2023-05-10T15:25:35.169Z,11.10
2023-05-10T15:28:03.395Z,11.43
2023-05-10T15:30:30.040Z,9.07
2023-05-10T15:32:56.797Z,11.75
2023-05-10T15:35:23.308Z,9.18
2023-05-10T15:37:50.284Z,7.90
2023-05-10T15:40:16.923Z,7.45
2023-05-10T15:42:43.362Z,6.03
2023-05-10T15:45:15.453Z,4.97
2023-05-10T15:47:42.215Z,7.90
2023-05-10T15:50:09.655Z,4.75
2023-05-10T15:52:36.168Z,5.57
2023-05-10T15:55:04.117Z,5.38
2023-05-10T15:57:30.634Z,5.60
2023-05-10T15:59:57.049Z,6.00
2023-05-10T16:02:23.783Z,6.15
2023-05-10T16:04:50.301Z,7.57
2023-05-10T16:07:16.853Z,5.57
2023-05-10T16:09:43.324Z,5.03
2023-05-10T16:12:10.975Z,5.30
2023-05-10T16:14:44.619Z,5.82
2023-05-10T16:17:11.564Z,5.25
2023-05-10T16:19:38.124Z,5.50
2023-05-10T16:22:05.062Z,5.13
2023-05-10T16:24:31.502Z,6.43
2023-05-10T16:26:57.896Z,7.30
2023-05-10T16:29:24.292Z,6.38
2023-05-10T16:31:50.719Z,7.45
2023-05-10T16:34:17.305Z,5.47
2023-05-10T16:36:45.868Z,6.18
2023-05-10T16:39:12.421Z,6.15
2023-05-10T16:41:38.797Z,8.10
2023-05-10T16:44:05.401Z,7.28
2023-05-10T16:46:31.949Z,5.38
2023-05-10T16:48:59.814Z,6.47
2023-05-10T16:51:26.979Z,8.18
2023-05-10T16:53:53.661Z,9.20
2023-05-10T16:56:21.753Z,8.80
2023-05-10T16:58:49.936Z,7.38
2023-05-10T17:01:17.206Z,7.85
2023-05-10T17:03:43.877Z,6.22
2023-05-10T17:06:14.547Z,8.02
2023-05-10T17:08:40.997Z,8.10
2023-05-10T17:11:07.733Z,10.88
2023-05-10T17:13:34.233Z,8.70
2023-05-10T17:16:04.108Z,12.30
2023-05-10T17:18:33.149Z,10.45
2023-05-10T17:20:59.608Z,10.05
2023-05-10T17:23:28.485Z,10.57
2023-05-10T17:25:55.108Z,10.93
2023-05-10T17:28:21.737Z,11.20
2023-05-10T17:30:55.694Z,12.48
2023-05-10T17:33:22.106Z,11.43
2023-05-10T17:35:48.990Z,9.65
2023-05-10T17:38:15.989Z,10.93
2023-05-10T17:40:42.861Z,12.00
2023-05-10T17:43:10.907Z,12.85
2023-05-10T17:45:37.553Z,14.95
2023-05-10T17:48:04.385Z,12.85
2023-05-10T17:50:32.753Z,13.77
2023-05-10T17:52:59.354Z,11.70
2023-05-10T17:55:30.088Z,14.35
2023-05-10T17:57:59.448Z,9.55
2023-05-10T18:00:26.099Z,13.30
2023-05-10T18:02:52.703Z,13.75
2023-05-10T18:05:19.490Z,12.77
2023-05-10T18:07:46.466Z,11.20
2023-05-10T18:10:12.869Z,14.63
2023-05-10T18:12:39.537Z,12.93
2023-05-10T18:15:06.595Z,12.93
2023-05-10T18:17:34.977Z,17.98
2023-05-10T18:20:02.144Z,12.50
2023-05-10T18:22:28.648Z,15.40
2023-05-10T18:24:55.237Z,14.00
2023-05-10T18:27:25.021Z,14.00
2023-05-10T18:29:52.280Z,13.85
2023-05-10T18:32:20.932Z,14.48
2023-05-10T18:34:47.341Z,13.35
2023-05-10T18:37:14.132Z,16.05
2023-05-10T18:39:40.862Z,12.15
2023-05-10T18:42:08.461Z,12.70
2023-05-10T18:44:34.941Z,12.50
2023-05-10T18:47:01.498Z,12.15
2023-05-10T18:49:29.201Z,14.05
2023-05-10T18:51:55.655Z,14.18
2023-05-10T18:54:22.631Z,11.55
2023-05-10T18:56:49.810Z,13.82
2023-05-10T18:59:16.608Z,14.57
2023-05-10T19:01:43.260Z,12.98
2023-05-10T19:04:09.828Z,12.73
2023-05-10T19:06:36.356Z,10.85
2023-05-10T19:09:03.280Z,12.73
2023-05-10T19:11:32.290Z,11.95
2023-05-10T19:13:58.826Z,11.02
2023-05-10T19:16:27.391Z,9.30
2023-05-10T19:18:56.401Z,12.00
2023-05-10T19:21:23.504Z,10.65
2023-05-10T19:23:50.056Z,10.85
2023-05-10T19:26:16.591Z,12.07
2023-05-10T19:28:43.032Z,10.50
2023-05-10T19:31:09.625Z,11.32
2023-05-10T19:33:38.343Z,12.55
2023-05-10T19:36:05.529Z,9.70
2023-05-10T19:38:31.920Z,13.63
2023-05-10T19:41:01.293Z,11.73
2023-05-10T19:43:30.657Z,9.65
2023-05-10T19:45:59.194Z,14.60
2023-05-10T19:48:25.978Z,11.80
2023-05-10T19:50:53.665Z,13.23
2023-05-10T19:53:27.309Z,13.63
2023-05-10T19:55:54.920Z,10.52
2023-05-10T19:58:21.473Z,10.32
2023-05-10T20:00:47.943Z,12.20
2023-05-10T20:03:14.446Z,12.55
2023-05-10T20:05:40.871Z,11.13
2023-05-10T20:08:07.903Z,10.88
2023-05-10T20:10:34.286Z,12.80
2023-05-10T20:13:01.044Z,18.15
2023-05-10T20:15:29.451Z,10.13
2023-05-10T20:17:56.204Z,14.07
2023-05-10T20:20:22.751Z,13.52
2023-05-10T20:22:49.693Z,10.20
2023-05-10T20:25:17.621Z,14.02
2023-05-10T20:27:44.724Z,11.88
2023-05-10T20:30:11.847Z,10.68
2023-05-10T20:32:38.893Z,12.77
2023-05-10T20:35:06.169Z,11.00
2023-05-10T20:37:33.071Z,11.73
2023-05-10T20:39:59.951Z,12.02
2023-05-10T20:42:26.429Z,11.20
2023-05-10T20:44:52.867Z,10.45
2023-05-10T20:47:19.416Z,12.35
2023-05-10T20:49:46.050Z,14.82
2023-05-10T20:52:12.686Z,10.52
2023-05-10T20:54:42.130Z,32.63
2023-05-10T20:57:14.143Z,47.75
2023-05-10T20:59:40.637Z,45.45
2023-05-10T21:02:07.057Z,17.20
2023-05-10T21:04:33.770Z,13.07
2023-05-10T21:07:00.275Z,14.35
2023-05-10T21:09:26.749Z,12.98
2023-05-10T21:11:55.898Z,12.45
2023-05-10T21:14:22.345Z,13.70
2023-05-10T21:16:51.072Z,15.57
2023-05-10T21:19:17.517Z,15.45
2023-05-10T21:21:43.905Z,21.88
2023-05-10T21:24:10.473Z,19.67
2023-05-10T21:26:37.271Z,14.30
2023-05-10T21:29:04.752Z,13.32
2023-05-10T21:31:31.761Z,14.43
2023-05-10T21:33:58.319Z,11.57
2023-05-10T21:36:25.638Z,16.42
2023-05-10T21:38:52.337Z,14.70
2023-05-10T21:41:18.825Z,14.43
2023-05-10T21:43:45.327Z,14.43
2023-05-10T21:46:13.381Z,11.68
2023-05-10T21:48:39.892Z,12.30
2023-05-10T21:51:06.410Z,13.93
2023-05-10T21:53:33.515Z,14.48
2023-05-10T21:55:59.958Z,16.35
2023-05-10T21:58:26.473Z,36.42
2023-05-10T22:00:52.988Z,100.93
2023-05-10T22:03:21.505Z,63.92
2023-05-10T22:05:48.170Z,75.25
2023-05-10T22:08:14.868Z,39.47
2023-05-10T22:10:42.722Z,18.73
2023-05-10T22:13:09.254Z,16.52
2023-05-10T22:15:36.618Z,15.38
2023-05-10T22:18:03.398Z,15.30
2023-05-10T22:20:29.910Z,12.15
2023-05-10T22:22:56.413Z,11.95
2023-05-10T22:25:22.992Z,12.98
2023-05-10T22:27:49.581Z,11.23
2023-05-10T22:30:19.859Z,15.68
2023-05-10T22:32:49.148Z,12.57
2023-05-10T22:35:15.631Z,15.07
2023-05-10T22:37:42.213Z,13.80
2023-05-10T22:40:09.256Z,14.13
2023-05-10T22:42:35.710Z,14.45
2023-05-10T22:45:02.163Z,13.60
2023-05-10T22:47:28.607Z,14.40
2023-05-10T22:49:55.585Z,14.13
2023-05-10T22:52:22.044Z,14.90
2023-05-10T22:54:48.495Z,15.48
2023-05-10T22:57:15.215Z,13.52
2023-05-10T22:59:42.455Z,18.17
2023-05-10T23:02:09.572Z,18.17
2023-05-10T23:04:36.297Z,15.45
2023-05-10T23:07:02.757Z,17.92
2023-05-10T23:09:29.139Z,18.27
2023-05-10T23:11:55.741Z,17.67
2023-05-10T23:14:22.479Z,20.90
2023-05-10T23:16:48.920Z,17.45
2023-05-10T23:19:16.587Z,22.48
2023-05-10T23:21:43.042Z,18.33
2023-05-10T23:24:09.569Z,17.90
2023-05-10T23:26:36.233Z,18.45
2023-05-10T23:29:02.637Z,18.30
2023-05-10T23:31:29.245Z,17.95
2023-05-10T23:33:55.908Z,18.52
2023-05-10T23:36:22.514Z,17.05
2023-05-10T23:38:48.957Z,18.42
2023-05-10T23:41:15.532Z,18.17
2023-05-10T23:43:42.006Z,18.38
2023-05-10T23:46:08.563Z,15.75
2023-05-10T23:48:37.432Z,18.10
2023-05-10T23:51:04.036Z,17.95
2023-05-10T23:53:30.564Z,23.27
2023-05-10T23:55:57.349Z,18.80
2023-05-10T23:58:23.897Z,18.67
